createdAt,value
2022-08-14T00:04:34.471Z,2.40
2022-08-14T00:09:33.200Z,2.50
2022-08-14T00:14:37.140Z,2.67
2022-08-14T00:19:40.890Z,2.30
2022-08-14T00:24:46.766Z,2.40
2022-08-14T00:29:52.956Z,2.30
2022-08-14T00:34:57.428Z,2.53
2022-08-14T00:40:05.484Z,2.33
2022-08-14T00:45:30.470Z,2.50
2022-08-14T00:50:34.858Z,2.30
2022-08-14T00:55:42.717Z,2.40
2022-08-14T01:00:51.097Z,2.73
2022-08-14T01:05:55.872Z,2.40
2022-08-14T01:11:06.222Z,2.47
2022-08-14T01:16:13.934Z,2.40
2022-08-14T01:21:18.878Z,2.30
2022-08-14T01:26:35.031Z,2.43
2022-08-14T01:31:44.795Z,2.37
2022-08-14T01:36:54.738Z,2.23
2022-08-14T01:42:01.709Z,2.60
2022-08-14T01:47:21.706Z,2.60
2022-08-14T01:52:34.628Z,2.57
2022-08-14T01:58:01.483Z,2.80
2022-08-14T02:03:14.913Z,2.77
2022-08-14T02:08:22.444Z,2.50
2022-08-14T02:13:40.448Z,2.23
2022-08-14T02:18:47.607Z,2.97
2022-08-14T02:23:54.993Z,2.77
2022-08-14T02:29:04.308Z,2.77
2022-08-14T02:34:20.086Z,2.90
2022-08-14T02:39:26.559Z,2.97
2022-08-14T02:44:39.801Z,2.80
2022-08-14T02:49:43.706Z,2.60
2022-08-14T02:54:48.260Z,2.60
2022-08-14T02:59:54.048Z,2.80
2022-08-14T03:04:58.076Z,3.00
2022-08-14T03:10:25.850Z,2.87
2022-08-14T03:15:27.518Z,2.50
2022-08-14T03:20:31.877Z,2.10
2022-08-14T03:25:37.419Z,2.53
2022-08-14T03:30:43.876Z,2.70
2022-08-14T03:35:59.732Z,2.60
2022-08-14T03:41:14.556Z,2.90
2022-08-14T03:46:39.236Z,3.30
2022-08-14T03:51:45.912Z,3.13
2022-08-14T03:56:50.736Z,3.10
2022-08-14T04:02:02.299Z,2.50
2022-08-14T04:07:11.158Z,3.37
2022-08-14T04:12:14.829Z,3.60
2022-08-14T04:17:31.398Z,3.67
2022-08-14T04:22:37.748Z,3.53
2022-08-14T04:28:01.942Z,2.90
2022-08-14T04:33:17.163Z,3.87
2022-08-14T04:38:41.865Z,3.57
2022-08-14T04:43:45.499Z,3.87
2022-08-14T04:48:59.956Z,3.97
2022-08-14T04:54:03.938Z,3.40
2022-08-14T04:59:10.349Z,3.63
2022-08-14T05:04:16.291Z,3.40
2022-08-14T05:09:24.193Z,3.50
2022-08-14T05:14:42.926Z,3.57
2022-08-14T05:21:54.113Z,3.30
2022-08-14T05:25:18.162Z,3.20
2022-08-14T05:30:21.754Z,3.30
2022-08-14T05:35:26.809Z,3.03
2022-08-14T05:40:32.222Z,3.87
2022-08-14T05:45:36.786Z,3.90
2022-08-14T05:50:42.178Z,4.00
2022-08-14T05:55:45.734Z,3.20
2022-08-14T06:00:50.317Z,3.50
2022-08-14T06:05:58.549Z,3.63
2022-08-14T06:11:06.674Z,4.10
2022-08-14T06:16:10.743Z,4.00
2022-08-14T06:21:17.578Z,3.50
2022-08-14T06:26:22.138Z,3.60
2022-08-14T06:31:26.073Z,3.80
2022-08-14T06:36:31.294Z,3.27
2022-08-14T06:41:58.091Z,3.50
2022-08-14T06:46:58.369Z,3.47
2022-08-14T06:52:03.428Z,3.10
2022-08-14T06:57:09.232Z,2.93
2022-08-14T07:02:30.147Z,2.70
2022-08-14T07:07:39.710Z,2.83
2022-08-14T07:13:01.368Z,2.90
2022-08-14T07:18:08.989Z,2.80
2022-08-14T07:23:19.869Z,2.80
2022-08-14T07:28:27.404Z,2.80
2022-08-14T07:33:33.540Z,2.83
2022-08-14T07:38:41.192Z,2.77
2022-08-14T07:43:52.933Z,2.73
2022-08-14T07:48:59.610Z,2.70
2022-08-14T07:54:09.820Z,2.60
2022-08-14T07:59:16.676Z,2.40
2022-08-14T08:04:27.080Z,2.53
2022-08-14T08:09:34.240Z,2.43
2022-08-14T08:14:56.214Z,2.57
2022-08-14T08:20:02.556Z,2.67
2022-08-14T08:25:13.893Z,2.40
2022-08-14T08:30:17.771Z,2.50
2022-08-14T08:35:23.852Z,2.60
2022-08-14T08:40:32.423Z,2.40
2022-08-14T08:45:37.541Z,2.37
2022-08-14T08:55:47.136Z,2.27
2022-08-14T09:00:56.507Z,2.00
2022-08-14T09:06:03.966Z,2.20
2022-08-14T09:11:19.289Z,2.20
2022-08-14T09:16:26.407Z,2.00
2022-08-14T09:21:31.776Z,1.90
2022-08-14T09:26:42.542Z,1.80
2022-08-14T09:31:53.384Z,1.80
2022-08-14T09:37:25.047Z,1.90
2022-08-14T09:42:51.145Z,2.13
2022-08-14T09:47:57.551Z,1.90
2022-08-14T09:53:05.369Z,2.40
2022-08-14T09:58:14.870Z,2.10
2022-08-14T10:03:34.354Z,2.00
2022-08-14T10:09:02.936Z,1.97
2022-08-14T10:14:29.589Z,2.10
2022-08-14T10:19:50.416Z,1.93
2022-08-14T10:24:54.041Z,1.80
2022-08-14T10:30:01.225Z,1.95
2022-08-14T10:35:13.340Z,1.63
2022-08-14T10:40:44.179Z,1.75
2022-08-14T10:46:21.889Z,2.00
2022-08-14T10:51:30.250Z,1.90
2022-08-14T10:56:38.013Z,1.90
2022-08-14T11:01:43.036Z,2.10
2022-08-14T11:06:54.637Z,1.70
2022-08-14T11:12:34.926Z,1.70
2022-08-14T11:17:26.655Z,1.85
2022-08-14T11:22:55.812Z,1.77
2022-08-14T11:28:03.840Z,1.73
2022-08-14T11:33:17.060Z,1.60
2022-08-14T11:38:22.080Z,1.70
2022-08-14T11:43:30.541Z,1.48
2022-08-14T11:49:03.551Z,1.80
2022-08-14T11:54:08.925Z,1.70
2022-08-14T11:59:19.115Z,1.80
2022-08-14T12:04:33.360Z,1.50
2022-08-14T12:09:43.176Z,1.52
2022-08-14T12:14:53.834Z,1.20
2022-08-14T12:20:03.117Z,1.20
2022-08-14T12:25:11.295Z,1.45
2022-08-14T12:30:20.783Z,1.40
2022-08-14T12:35:39.732Z,1.20
2022-08-14T12:40:50.586Z,1.10
2022-08-14T12:45:55.685Z,1.25
2022-08-14T12:51:00.634Z,1.13
2022-08-14T12:56:21.554Z,1.50
2022-08-14T13:02:00.338Z,1.27
2022-08-14T13:07:08.724Z,1.40
2022-08-14T13:12:31.914Z,1.30
2022-08-14T13:17:44.526Z,1.30
2022-08-14T13:22:53.066Z,1.27
2022-08-14T13:27:59.246Z,1.27
2022-08-14T13:33:05.929Z,1.30
2022-08-14T13:38:23.166Z,1.30
2022-08-14T13:43:36.529Z,1.30
2022-08-14T13:48:40.429Z,1.13
2022-08-14T13:54:08.199Z,1.20
2022-08-14T13:59:20.177Z,1.23
2022-08-14T14:04:33.543Z,1.23
2022-08-14T14:09:51.157Z,1.10
2022-08-14T14:14:57.213Z,1.10
2022-08-14T14:20:07.230Z,1.35
2022-08-14T14:25:19.574Z,1.17
2022-08-14T14:30:52.608Z,1.10
2022-08-14T14:35:51.749Z,1.33
2022-08-14T14:41:01.032Z,1.38
2022-08-14T14:46:09.412Z,1.13
2022-08-14T14:51:14.629Z,1.17
2022-08-14T14:56:52.122Z,1.30
2022-08-14T15:01:49.300Z,1.33
2022-08-14T15:06:53.314Z,1.30
2022-08-14T15:11:58.925Z,1.20
2022-08-14T15:17:02.353Z,1.50
2022-08-14T15:22:07.690Z,1.13
2022-08-14T15:27:15.702Z,1.30
2022-08-14T15:32:29.902Z,1.33
2022-08-14T15:37:42.114Z,1.40
2022-08-14T15:42:48.421Z,1.20
2022-08-14T15:47:52.167Z,1.35
2022-08-14T15:52:55.624Z,1.35
2022-08-14T15:58:03.140Z,1.50
2022-08-14T16:03:14.110Z,1.25
2022-08-14T16:08:27.148Z,1.40
2022-08-14T16:13:42.163Z,1.40
2022-08-14T16:18:46.710Z,1.38
2022-08-14T16:23:52.957Z,1.25
2022-08-14T16:29:02.648Z,1.30
2022-08-14T16:34:43.679Z,1.23
2022-08-14T16:39:30.695Z,1.40
2022-08-14T16:44:40.892Z,1.40
2022-08-14T16:50:04.324Z,1.50
2022-08-14T16:55:11.257Z,1.35
2022-08-14T17:00:28.876Z,1.40
2022-08-14T17:05:38.500Z,1.48
2022-08-14T17:11:04.890Z,1.50
2022-08-14T17:16:24.923Z,1.35
2022-08-14T17:21:32.238Z,1.70
2022-08-14T17:26:39.226Z,1.60
2022-08-14T17:31:58.616Z,1.50
2022-08-14T17:37:05.347Z,1.55
2022-08-14T17:42:17.280Z,1.42
2022-08-14T17:47:38.857Z,1.52
2022-08-14T17:52:48.911Z,1.50
2022-08-14T17:57:55.047Z,1.58
2022-08-14T18:03:01.999Z,1.58
2022-08-14T18:08:32.867Z,1.60
2022-08-14T18:13:49.813Z,1.70
2022-08-14T18:18:57.450Z,2.17
2022-08-14T18:24:01.044Z,1.60
2022-08-14T18:29:14.841Z,1.70
2022-08-14T18:34:30.799Z,1.73
2022-08-14T18:40:03.099Z,1.93
2022-08-14T18:45:16.114Z,1.90
2022-08-14T18:50:31.174Z,1.80
2022-08-14T18:56:09.566Z,2.10
2022-08-14T19:01:57.562Z,2.10
2022-08-14T19:07:19.542Z,2.03
2022-08-14T19:13:12.166Z,2.13
2022-08-14T19:18:27.762Z,2.00
2022-08-14T19:23:42.787Z,2.00
2022-08-14T19:28:52.008Z,2.20
2022-08-14T19:33:57.244Z,2.30
2022-08-14T19:39:04.172Z,2.67
2022-08-14T19:44:11.021Z,2.43
2022-08-14T19:49:23.421Z,2.50
2022-08-14T19:54:40.709Z,2.30
2022-08-14T19:59:58.098Z,2.67
2022-08-14T20:05:03.765Z,2.63
2022-08-14T20:11:05.639Z,2.90
2022-08-14T20:20:57.521Z,2.63
2022-08-14T20:26:03.101Z,2.60
2022-08-14T20:31:16.087Z,2.43
2022-08-14T20:36:31.755Z,2.40
2022-08-14T20:41:39.237Z,2.80
2022-08-14T20:46:43.163Z,2.60
2022-08-14T20:51:58.549Z,3.00
2022-08-14T20:57:10.855Z,2.87
2022-08-14T21:02:29.737Z,2.50
2022-08-14T21:07:37.403Z,2.53
2022-08-14T21:13:26.488Z,2.70
2022-08-14T21:18:26.262Z,2.70
2022-08-14T21:29:11.731Z,2.70
2022-08-14T21:34:31.173Z,2.43
2022-08-14T21:39:35.904Z,2.67
2022-08-14T21:44:43.642Z,2.27
2022-08-14T21:49:50.800Z,2.37
2022-08-14T21:54:55.586Z,2.40
2022-08-14T22:00:35.056Z,2.60
2022-08-14T22:05:38.924Z,2.70
2022-08-14T22:10:47.704Z,2.80
2022-08-14T22:16:03.734Z,2.43
2022-08-14T22:21:16.785Z,2.77
2022-08-14T22:26:22.318Z,2.57
2022-08-14T22:38:01.692Z,2.67
2022-08-14T22:43:25.761Z,2.50
2022-08-14T22:48:31.364Z,2.53
2022-08-14T22:53:36.877Z,1.97
2022-08-14T22:58:43.207Z,2.30
2022-08-14T23:03:49.243Z,2.33
2022-08-14T23:09:34.465Z,2.40
2022-08-14T23:14:24.176Z,2.50
2022-08-14T23:19:33.949Z,2.43
2022-08-14T23:24:41.577Z,2.40
2022-08-14T23:29:46.700Z,2.57
2022-08-14T23:34:54.885Z,2.50
2022-08-14T23:40:00.283Z,2.37
2022-08-14T23:45:04.632Z,2.20
2022-08-14T23:50:34.183Z,2.60
2022-08-14T23:55:36.677Z,2.77
